createdAt,value
2018-10-12T05:06:57.389Z,89.37
2018-10-12T05:24:00.281Z,88.90
2018-10-12T05:47:24.297Z,91.15
2018-10-12T05:48:24.057Z,90.94
2018-10-12T05:49:24.178Z,90.27
2018-10-12T05:50:24.001Z,88.70
2018-10-12T05:51:23.820Z,88.53
2018-10-12T05:52:23.849Z,89.04
2018-10-12T05:53:23.844Z,89.41
2018-10-12T05:54:23.755Z,89.45
2018-10-12T05:55:23.707Z,89.51
2018-10-12T05:56:24.662Z,90.12
2018-10-12T05:57:23.706Z,90.12
2018-10-12T05:58:23.753Z,90.99
2018-10-12T05:59:24.551Z,90.68
2018-10-12T06:00:23.825Z,90.58
2018-10-12T06:01:23.655Z,91.29
2018-10-12T06:02:23.839Z,91.35
2018-10-12T06:03:23.603Z,90.94
2018-10-12T06:04:23.640Z,91.19
2018-10-12T06:05:23.609Z,90.33
2018-10-12T06:06:24.567Z,90.23
2018-10-12T06:07:23.711Z,89.56
2018-10-12T06:08:25.150Z,88.94
2018-10-12T06:09:23.575Z,88.74
2018-10-12T06:56:53.888Z,90.75
2018-10-12T06:59:41.984Z,91.63
2018-10-12T07:00:20.895Z,91.94
2018-10-12T07:01:42.826Z,92.65
2018-10-12T07:13:13.195Z,93.85
2018-10-12T07:14:12.715Z,93.54
2018-10-12T07:15:12.715Z,93.80
2018-10-12T07:16:12.722Z,93.70
2018-10-12T07:17:12.605Z,93.60
2018-10-12T07:18:12.601Z,92.79
2018-10-12T07:19:12.597Z,92.79
2018-10-12T07:20:12.598Z,92.74
2018-10-12T07:21:13.454Z,92.23
2018-10-12T07:22:12.611Z,92.23
2018-10-12T08:06:46.452Z,76.44
2018-10-12T08:07:48.751Z,76.71
2018-10-12T08:10:24.450Z,74.76
2018-10-12T08:11:28.624Z,76.43
2018-10-12T08:12:28.246Z,74.32
2018-10-12T08:13:23.795Z,74.22
2018-10-12T08:21:41.585Z,71.06
2018-10-12T08:22:40.618Z,69.96
2018-10-12T08:23:40.600Z,69.06
2018-10-12T08:24:40.647Z,68.95
2018-10-12T08:25:41.562Z,67.82
2018-10-12T08:26:40.487Z,71.03
2018-10-12T08:27:42.525Z,68.99
2018-10-12T08:28:41.452Z,69.49
2018-10-12T08:29:40.369Z,69.19
2018-10-12T08:30:40.367Z,68.18
2018-10-12T08:31:41.331Z,67.55
2018-10-12T08:34:45.572Z,67.25
2018-10-12T08:35:44.811Z,66.55
2018-10-12T08:36:44.579Z,67.82
2018-10-12T08:37:44.691Z,66.11
2018-10-12T08:38:44.455Z,66.21
2018-10-12T08:39:44.341Z,66.71
2018-10-12T08:40:44.380Z,65.51
2018-10-12T08:41:44.485Z,66.08
2018-10-12T08:42:44.357Z,65.88
2018-10-12T08:43:44.348Z,65.38
2018-10-12T08:44:44.336Z,66.28
2018-10-12T08:45:44.384Z,65.25
2018-10-12T08:46:44.384Z,65.95
2018-10-12T08:47:44.942Z,64.95
2018-10-12T08:48:44.219Z,65.65
2018-10-12T08:49:44.340Z,64.92
2018-10-12T08:50:44.341Z,66.32
2018-10-12T08:51:44.226Z,65.92
2018-10-12T08:52:44.275Z,64.59
2018-10-12T08:53:44.222Z,64.48
2018-10-12T08:54:44.221Z,65.78
2018-10-12T08:55:44.350Z,63.89
2018-10-12T08:56:46.989Z,63.98
2018-10-12T08:57:44.944Z,63.89
2018-10-12T08:58:50.879Z,64.06
2018-10-12T08:59:44.466Z,63.15
2018-10-12T09:00:45.186Z,63.25
2018-10-12T09:01:44.228Z,62.92
2018-10-12T09:02:44.174Z,63.06
2018-10-12T09:03:44.111Z,63.53
2018-10-12T09:04:44.159Z,62.95
2018-10-12T09:05:44.232Z,62.82
2018-10-12T09:06:44.469Z,62.62
2018-10-12T09:20:00.800Z,61.16
2018-10-12T09:21:01.169Z,60.77
2018-10-12T09:27:45.930Z,60.66
2018-10-12T09:28:44.125Z,60.74
2018-10-12T09:29:44.486Z,60.24
2018-10-12T09:30:44.248Z,60.46
2018-10-12T09:31:44.247Z,60.63
2018-10-12T09:32:44.296Z,60.57
2018-10-12T09:33:44.849Z,59.83
2018-10-12T09:34:44.131Z,60.33
2018-10-12T09:35:44.251Z,59.56
2018-10-12T09:36:44.139Z,59.47
2018-10-12T09:37:44.011Z,60.77
2018-10-12T09:38:44.014Z,60.83
2018-10-12T09:39:44.013Z,60.53
2018-10-12T09:40:44.855Z,59.64
2018-10-12T09:41:43.831Z,60.63
2018-10-12T09:42:43.900Z,61.04
2018-10-12T09:43:45.718Z,60.74
2018-10-12T09:44:44.856Z,60.83
2018-10-12T10:14:18.364Z,57.78
2018-10-12T10:16:30.281Z,57.68
2018-10-12T10:31:29.529Z,57.06
2018-10-12T10:32:29.092Z,57.56
2018-10-12T10:33:28.935Z,57.35
2018-10-12T10:34:29.052Z,57.46
2018-10-12T10:35:29.050Z,57.26
2018-10-12T10:36:30.512Z,56.96
2018-10-12T10:37:28.821Z,56.66
2018-10-12T10:38:28.693Z,56.96
2018-10-12T10:39:28.934Z,57.06
2018-10-12T10:40:28.631Z,57.06
2018-10-12T10:41:28.697Z,57.26
2018-10-12T10:42:30.524Z,57.26
2018-10-12T10:43:28.620Z,56.73
2018-10-12T10:44:28.697Z,56.63
2018-10-12T10:45:28.816Z,56.93
2018-10-12T10:46:28.693Z,57.13
2018-10-12T10:47:29.195Z,57.00
2018-10-12T10:48:28.587Z,57.30
2018-10-12T10:49:28.581Z,57.30
2018-10-12T10:50:28.580Z,57.00
2018-10-12T10:51:28.581Z,56.90
2018-10-12T10:52:28.584Z,57.90
2018-10-12T10:53:28.619Z,57.00
2018-10-12T10:54:28.501Z,57.00
2018-10-12T10:56:48.183Z,56.18
2018-10-12T10:57:47.717Z,55.88
2018-10-12T10:58:47.470Z,55.88
2018-10-12T11:02:51.923Z,54.75
2018-10-12T11:07:21.880Z,54.96
2018-10-12T11:08:21.893Z,55.05
2018-10-12T11:09:21.513Z,55.05
2018-10-12T11:13:30.560Z,54.86
2018-10-12T11:14:35.196Z,54.86
2018-10-12T11:15:32.347Z,54.75
2018-10-12T11:29:39.408Z,53.31
2018-10-12T11:30:38.808Z,54.01
2018-10-12T11:31:38.823Z,54.01
2018-10-12T11:32:38.811Z,54.31
2018-10-12T11:33:38.733Z,53.74
2018-10-12T11:34:38.740Z,53.83
2018-10-12T11:35:38.747Z,54.33
2018-10-12T11:36:38.623Z,54.53
2018-10-12T11:37:38.698Z,53.94
2018-10-12T11:38:38.617Z,54.43
2018-10-12T11:39:38.618Z,54.01
2018-10-12T11:40:38.618Z,54.41
2018-10-12T11:41:38.695Z,53.91
2018-10-12T11:42:38.618Z,53.39
2018-10-12T11:43:38.582Z,53.28
2018-10-12T11:44:38.582Z,53.28
2018-10-12T11:45:38.578Z,52.99
2018-10-12T11:46:38.579Z,53.41
2018-10-12T11:47:38.502Z,54.11
2018-10-12T11:48:38.510Z,53.09
2018-10-12T11:49:38.504Z,54.31
2018-10-12T11:50:38.500Z,54.48
2018-10-12T11:51:38.507Z,54.48
2018-10-12T11:52:38.509Z,53.78
2018-10-12T11:53:38.479Z,53.69
2018-10-12T11:54:38.465Z,54.28
2018-10-12T11:55:38.466Z,53.98
2018-10-12T11:56:38.465Z,53.58
2018-10-12T11:57:38.470Z,53.96
2018-10-12T11:58:38.467Z,53.86
2018-10-12T11:59:38.388Z,53.16
2018-10-12T12:00:38.467Z,53.26
2018-10-12T12:01:38.389Z,54.16
2018-10-12T12:02:38.388Z,53.26
2018-10-12T12:03:38.469Z,53.86
2018-10-12T12:04:38.354Z,53.96
2018-10-12T12:05:38.354Z,53.26
2018-10-12T12:06:38.353Z,53.76
2018-10-12T12:07:39.203Z,54.75
2018-10-12T12:13:29.969Z,52.14
2018-10-12T12:36:51.030Z,48.67
2018-10-12T12:37:50.786Z,48.38
2018-10-12T12:38:50.854Z,48.97
2018-10-12T12:39:50.735Z,48.69
2018-10-12T12:40:53.619Z,48.67
2018-10-12T12:43:11.315Z,48.97
2018-10-12T12:44:12.629Z,48.18
2018-10-12T12:45:24.700Z,47.58
2018-10-12T13:03:34.437Z,45.56
2018-10-12T13:11:30.136Z,45.51
2018-10-12T13:14:12.496Z,45.12
2018-10-12T13:18:50.641Z,44.62
2018-10-12T13:19:50.404Z,44.52
2018-10-12T13:20:53.765Z,45.31
2018-10-12T13:24:22.926Z,44.60
2018-10-12T13:25:22.450Z,45.19
2018-10-12T13:26:23.666Z,45.09
2018-10-12T13:27:22.382Z,45.00
2018-10-12T13:28:22.449Z,43.91
2018-10-12T13:29:22.332Z,45.17
2018-10-12T13:30:22.330Z,43.39
2018-10-12T13:31:22.330Z,43.98
2018-10-12T13:32:22.454Z,44.40
2018-10-12T13:33:22.253Z,42.99
2018-10-12T13:34:22.261Z,44.78
2018-10-12T13:35:22.334Z,44.18
2018-10-12T13:36:22.334Z,44.68
2018-10-12T13:37:22.337Z,43.59
2018-10-12T13:38:22.341Z,44.78
2018-10-12T13:39:22.217Z,44.48
2018-10-12T13:40:22.219Z,44.68
2018-10-12T13:41:22.219Z,44.01
2018-10-12T13:42:22.459Z,44.80
2018-10-12T13:43:22.220Z,44.78
2018-10-12T13:44:22.146Z,43.80
2018-10-12T13:45:22.156Z,44.60
2018-10-12T13:46:22.223Z,45.39
2018-10-12T13:47:22.222Z,44.70
2018-10-12T13:48:22.224Z,44.40
2018-10-12T13:49:22.104Z,43.04
2018-10-12T13:50:22.226Z,44.62
2018-10-12T13:51:22.118Z,44.70
2018-10-12T13:52:23.666Z,44.01
2018-10-12T13:53:22.109Z,44.10
2018-10-12T13:54:22.255Z,43.41
2018-10-12T13:55:22.108Z,43.24
2018-10-12T13:56:22.108Z,43.43
2018-10-12T13:57:22.032Z,44.62
2018-10-12T13:58:22.043Z,44.52
2018-10-12T13:59:22.110Z,44.72
2018-10-12T14:00:22.064Z,45.31
2018-10-12T14:01:21.992Z,45.49
2018-10-12T14:02:21.996Z,43.13
2018-10-12T14:03:21.996Z,42.84
2018-10-12T14:04:21.931Z,43.63
2018-10-12T14:05:21.932Z,43.53
2018-10-12T14:06:22.000Z,44.92
2018-10-12T14:07:22.000Z,43.24
2018-10-12T14:08:21.989Z,45.01
2018-10-12T14:09:21.933Z,42.94
2018-10-12T14:10:22.000Z,44.72
2018-10-12T14:11:21.880Z,44.82
2018-10-12T14:12:21.946Z,43.41
2018-10-12T14:13:21.879Z,43.43
2018-10-12T14:14:21.883Z,44.52
2018-10-12T14:15:21.881Z,44.32
2018-10-12T14:16:21.881Z,44.82
2018-10-12T14:17:21.884Z,44.02
2018-10-12T14:18:21.918Z,45.51
2018-10-12T14:19:22.099Z,46.08
2018-10-12T14:20:21.804Z,44.60
2018-10-12T14:21:21.802Z,43.10
2018-10-12T14:22:21.811Z,42.92
2018-10-12T14:23:21.767Z,43.12
2018-10-12T14:24:22.249Z,43.02
2018-10-12T14:25:21.770Z,43.04
2018-10-12T14:26:21.772Z,42.84
2018-10-12T14:27:21.769Z,43.33
2018-10-12T14:28:21.889Z,44.84
2018-10-12T14:29:21.696Z,45.53
2018-10-12T14:30:21.773Z,44.64
2018-10-12T14:31:21.785Z,44.15
2018-10-12T14:32:21.702Z,43.16
2018-10-12T14:33:21.660Z,44.35
2018-10-12T14:34:21.655Z,44.17
2018-10-12T14:35:21.658Z,44.17
2018-10-12T14:36:21.657Z,44.56
2018-10-12T14:37:21.810Z,44.29
2018-10-12T14:38:21.593Z,44.59
2018-10-12T14:39:21.659Z,44.78
2018-10-12T14:40:21.579Z,44.98
2018-10-12T14:41:21.658Z,44.59
2018-10-12T14:42:21.660Z,45.68
2018-10-12T14:43:21.541Z,45.26
2018-10-12T14:44:21.818Z,46.84
2018-10-12T14:45:21.542Z,44.76
2018-10-12T14:46:21.545Z,45.45
2018-10-12T14:47:21.543Z,45.26
2018-10-12T14:48:21.548Z,45.16
2018-10-12T14:49:21.545Z,45.26
2018-10-12T14:50:21.549Z,46.84
2018-10-12T14:51:21.500Z,46.45
2018-10-12T14:52:21.546Z,47.44
2018-10-12T14:53:21.500Z,47.14
2018-10-12T14:54:21.505Z,45.75
2018-10-12T14:55:21.429Z,45.56
2018-10-12T14:56:21.430Z,44.76
2018-10-12T14:57:21.368Z,45.26
2018-10-12T14:58:21.435Z,47.93
2018-10-12T14:59:21.346Z,44.67
2018-10-12T15:00:21.350Z,45.38
2018-10-12T15:01:21.356Z,45.56
2018-10-12T15:02:21.355Z,45.28
2018-10-12T15:03:21.434Z,44.49
2018-10-12T15:04:21.351Z,44.89
2018-10-12T15:05:21.337Z,44.81
2018-10-12T15:06:22.155Z,44.71
2018-10-12T15:07:21.316Z,45.00
2018-10-12T15:08:21.318Z,45.50
2018-10-12T15:09:21.240Z,45.40
2018-10-12T15:10:21.318Z,44.60
2018-10-12T15:11:21.238Z,44.90
2018-10-12T15:12:21.244Z,45.12
2018-10-12T15:13:21.321Z,45.23
2018-10-12T15:14:21.242Z,45.40
2018-10-12T15:15:21.203Z,46.71
2018-10-12T15:16:21.205Z,45.72
2018-10-12T15:17:21.204Z,45.23
2018-10-12T15:18:21.216Z,45.42
2018-10-12T15:19:21.209Z,46.42
2018-10-12T15:20:21.130Z,46.42
2018-10-12T15:21:21.323Z,45.72
2018-10-12T15:22:21.135Z,45.52
2018-10-12T15:23:21.122Z,46.24
2018-10-12T15:24:21.137Z,45.84
2018-10-12T15:25:21.146Z,46.83
2018-10-12T15:26:21.090Z,47.13
2018-10-12T15:27:21.095Z,46.73
2018-10-12T15:28:21.092Z,47.23
2018-10-12T15:29:21.024Z,47.23
2018-10-12T15:30:21.021Z,46.83
2018-10-12T15:31:21.093Z,47.13
2018-10-12T15:32:21.011Z,46.81
2018-10-12T15:33:21.015Z,47.31
2018-10-12T15:34:21.028Z,46.91
2018-10-12T15:35:21.011Z,47.13
2018-10-12T15:36:20.981Z,47.13
2018-10-12T15:37:21.079Z,47.92
2018-10-12T15:38:20.978Z,47.92
2018-10-12T15:39:20.979Z,47.53
2018-10-12T15:40:20.915Z,47.13
2018-10-12T15:41:20.980Z,47.13
2018-10-12T15:42:20.907Z,46.86
2018-10-12T15:43:20.942Z,47.35
2018-10-12T15:44:20.898Z,47.35
2018-10-12T15:45:20.901Z,49.04
2018-10-12T15:46:20.908Z,48.05
2018-10-12T15:47:20.983Z,47.05
2018-10-12T15:48:20.866Z,49.84
2018-10-12T15:49:20.864Z,49.07
2018-10-12T15:50:20.866Z,48.47
2018-10-12T15:51:21.245Z,48.57
2018-10-12T15:52:20.792Z,51.15
2018-10-12T15:53:20.867Z,48.86
2018-10-12T15:54:20.786Z,48.69
2018-10-12T15:55:20.789Z,48.49
2018-10-12T15:56:20.870Z,49.08
2018-10-12T15:57:21.229Z,50.58
2018-10-12T15:58:21.642Z,50.18
2018-10-12T15:59:20.753Z,49.68
2018-10-12T16:00:20.688Z,50.18
2018-10-12T16:01:20.752Z,50.01
2018-10-12T16:02:20.680Z,51.00
2018-10-12T16:03:20.755Z,50.20
2018-10-12T16:04:20.687Z,50.60
2018-10-12T16:05:20.672Z,52.32
2018-10-12T16:06:20.799Z,51.12
2018-10-12T16:07:20.674Z,51.03
2018-10-12T16:08:20.639Z,50.93
2018-10-12T16:09:20.642Z,52.22
2018-10-12T16:10:20.639Z,51.45
2018-10-12T16:11:20.572Z,50.85
2018-10-12T16:12:20.565Z,52.24
2018-10-12T16:13:20.559Z,52.24
2018-10-12T16:14:20.642Z,51.45
2018-10-12T16:15:20.563Z,52.27
2018-10-12T16:16:20.579Z,51.97
2018-10-12T16:17:20.571Z,52.17
2018-10-12T16:18:20.525Z,52.37
2018-10-12T16:19:20.564Z,54.36
2018-10-12T16:20:20.530Z,54.58
2018-10-12T16:21:20.526Z,54.96
2018-10-12T16:22:20.562Z,54.19
2018-10-12T16:23:20.527Z,53.19
2018-10-12T16:24:20.457Z,54.79
2018-10-12T16:25:20.532Z,56.57
2018-10-12T16:26:20.459Z,55.11
2018-10-12T16:27:20.448Z,56.08
2018-10-12T16:28:20.411Z,56.51
2018-10-12T16:29:20.415Z,56.21
2018-10-12T16:30:20.415Z,56.40
2018-10-12T16:31:20.414Z,56.01
2018-10-12T16:32:20.353Z,55.93
2018-10-12T16:33:20.338Z,56.43
2018-10-12T16:34:20.414Z,56.53
2018-10-12T16:35:20.537Z,56.23
2018-10-12T16:36:20.374Z,56.96
2018-10-12T16:37:20.420Z,56.66
2018-10-12T16:38:20.340Z,56.56
2018-10-12T16:39:20.302Z,56.56
2018-10-12T16:40:20.301Z,56.38
2018-10-12T16:41:20.310Z,57.09
2018-10-12T16:42:20.235Z,57.28
2018-10-12T16:43:20.227Z,56.68
2018-10-12T16:44:20.217Z,56.71
2018-10-12T16:45:20.229Z,57.21
2018-10-12T16:46:20.308Z,58.81
2018-10-12T16:47:20.303Z,56.71
2018-10-12T16:48:20.222Z,58.64
2018-10-12T16:49:20.189Z,57.14
2018-10-12T16:50:20.187Z,57.44
2018-10-12T16:51:20.188Z,58.44
2018-10-12T16:52:20.192Z,58.44
2018-10-12T16:53:20.188Z,58.56
2018-10-12T16:54:20.189Z,58.14
2018-10-12T16:55:20.110Z,57.64
2018-10-12T16:56:20.128Z,59.06
2018-10-12T16:57:20.192Z,58.47
2018-10-12T16:58:20.243Z,58.56
2018-10-12T16:59:20.112Z,59.30
2018-10-12T17:00:20.075Z,58.59
2018-10-12T17:01:20.074Z,58.59
2018-10-12T17:02:20.074Z,59.30
2018-10-12T17:03:20.076Z,58.29
2018-10-12T17:04:20.053Z,58.59
2018-10-12T17:05:19.995Z,58.72
2018-10-12T17:06:20.001Z,59.02
2018-10-12T17:07:20.000Z,58.92
2018-10-12T17:08:20.083Z,58.32
2018-10-12T17:09:19.996Z,58.72
2018-10-12T17:10:19.961Z,59.15
2018-10-12T17:11:19.962Z,58.75
2018-10-12T17:12:19.960Z,59.15
2018-10-12T17:13:19.896Z,59.55
2018-10-12T17:14:19.898Z,59.78
2018-10-12T17:15:19.964Z,60.78
2018-10-12T17:16:19.966Z,59.98
2018-10-12T17:17:19.890Z,60.28
2018-10-12T17:18:20.031Z,59.68
2018-10-12T17:19:19.896Z,61.08
2018-10-12T17:20:19.847Z,60.98
2018-10-12T17:21:19.850Z,60.98
2018-10-12T17:22:19.850Z,60.31
2018-10-12T17:23:19.849Z,61.41
2018-10-12T17:24:19.849Z,60.91
2018-10-12T17:25:19.855Z,61.01
2018-10-12T17:26:19.777Z,61.31
2018-10-12T17:27:19.785Z,61.51
2018-10-12T17:28:19.785Z,61.61
2018-10-12T17:29:19.854Z,62.14
2018-10-12T17:30:19.909Z,61.74
2018-10-12T17:31:19.736Z,61.74
2018-10-12T17:32:19.735Z,61.84
2018-10-12T17:33:19.735Z,62.44
2018-10-12T17:34:19.674Z,62.87
2018-10-12T17:35:19.738Z,63.07
2018-10-12T17:36:19.666Z,62.87
2018-10-12T17:37:19.664Z,63.07
2018-10-12T17:38:19.673Z,62.54
2018-10-12T17:39:19.669Z,63.28
2018-10-12T17:40:19.743Z,62.37
2018-10-12T17:41:19.740Z,63.28
2018-10-12T17:42:19.744Z,63.28
2018-10-12T17:43:19.623Z,62.97
2018-10-12T17:44:19.624Z,63.28
2018-10-12T17:45:19.624Z,63.78
2018-10-12T17:46:19.559Z,63.20
2018-10-12T17:47:19.627Z,64.07
2018-10-12T17:48:19.625Z,64.48
2018-10-12T17:49:19.735Z,63.90
2018-10-12T17:50:19.638Z,65.21
2018-10-12T17:51:19.563Z,64.61
2018-10-12T17:52:19.509Z,63.90
2018-10-12T17:53:19.511Z,65.11
2018-10-12T17:54:19.510Z,65.11
2018-10-12T17:55:19.519Z,64.71
2018-10-12T17:56:19.516Z,64.91
2018-10-12T17:57:19.433Z,64.81
2018-10-12T17:58:19.513Z,64.40
2018-10-12T17:59:19.514Z,64.40
2018-10-12T18:00:19.693Z,65.31
2018-10-12T18:01:19.514Z,65.71
2018-10-12T18:02:19.395Z,65.81
2018-10-12T18:03:19.549Z,65.81
2018-10-12T18:04:19.397Z,65.51
2018-10-12T18:05:19.399Z,65.21
2018-10-12T18:06:19.399Z,64.91
2018-10-12T18:07:19.397Z,64.84
2018-10-12T18:08:19.399Z,65.04
2018-10-12T18:10:38.001Z,64.94
2018-10-12T18:13:05.998Z,65.24
2018-10-12T18:35:37.897Z,66.20
2018-10-12T18:36:37.542Z,66.71
2018-10-12T18:37:37.538Z,67.04
2018-10-12T18:38:37.431Z,67.65
2018-10-12T18:39:37.348Z,67.85
2018-10-12T18:40:37.371Z,67.85
2018-10-12T18:41:37.304Z,67.55
2018-10-12T18:42:37.301Z,67.74
2018-10-12T18:43:37.306Z,67.94
2018-10-12T18:44:37.309Z,67.65
2018-10-12T18:45:37.355Z,67.65
2018-10-12T18:48:17.417Z,68.38
2018-10-12T18:49:17.079Z,67.78
2018-10-12T18:50:17.026Z,67.98
2018-10-12T18:51:17.028Z,68.18
2018-10-12T18:52:16.947Z,68.98
2018-10-12T18:53:16.955Z,68.98
2018-10-12T18:54:17.040Z,68.78
2018-10-12T18:55:16.913Z,69.38
2018-10-12T18:56:16.910Z,69.49
2018-10-12T18:57:16.839Z,69.62
2018-10-12T18:58:16.915Z,69.29
2018-10-12T18:59:16.921Z,69.59
2018-10-12T19:00:16.927Z,69.59
2018-10-12T19:01:16.923Z,69.82
2018-10-12T19:02:16.919Z,69.42
2018-10-12T19:03:16.856Z,69.29
2018-10-12T19:04:16.836Z,68.82
2018-10-12T19:05:16.805Z,69.99
2018-10-12T19:06:16.805Z,69.89
2018-10-12T19:07:16.799Z,69.52
2018-10-12T19:08:16.800Z,70.12
2018-10-12T19:09:16.801Z,70.03
2018-10-12T19:10:16.728Z,69.29
2018-10-12T19:11:16.735Z,69.52
2018-10-12T19:12:16.803Z,70.73
2018-10-12T19:13:16.804Z,70.83
2018-10-12T19:14:16.684Z,70.03
2018-10-12T19:15:16.685Z,70.12
2018-10-12T19:16:16.687Z,70.53
2018-10-12T19:17:16.686Z,69.92
2018-10-12T19:18:16.625Z,69.62
2018-10-12T19:19:16.620Z,70.23
2018-10-12T19:20:16.688Z,70.23
2018-10-12T19:21:16.723Z,71.33
2018-10-12T19:22:16.689Z,70.23
2018-10-12T19:23:16.619Z,70.16
2018-10-12T19:24:16.572Z,70.93
2018-10-12T19:25:16.691Z,71.03
2018-10-12T19:26:17.291Z,71.26
2018-10-12T19:27:16.571Z,71.06
2018-10-12T19:28:16.573Z,71.16
2018-10-12T19:29:16.503Z,72.07
2018-10-12T19:30:16.577Z,71.06
2018-10-12T19:31:16.637Z,71.97
2018-10-12T19:32:16.583Z,71.06
2018-10-12T19:33:16.605Z,71.97
2018-10-12T19:34:16.577Z,72.11
2018-10-12T19:35:16.459Z,72.77
2018-10-12T19:36:16.583Z,71.77
2018-10-12T19:37:16.464Z,72.91
2018-10-12T19:38:16.476Z,72.88
2018-10-12T19:39:16.396Z,72.20
2018-10-12T19:40:16.464Z,71.91
2018-10-12T19:41:16.389Z,71.80
2018-10-12T19:42:16.462Z,71.80
2018-10-12T19:43:16.463Z,71.50
2018-10-12T19:44:16.466Z,72.11
2018-10-12T19:45:16.346Z,71.70
2018-10-12T19:46:16.347Z,72.64
2018-10-12T19:47:16.349Z,71.53
2018-10-12T19:48:16.518Z,71.84
2018-10-12T19:49:16.350Z,72.64
2018-10-12T19:50:16.348Z,72.11
2018-10-12T19:51:16.278Z,71.94
2018-10-12T19:52:16.302Z,71.94
2018-10-12T19:53:16.350Z,72.74
2018-10-12T19:54:16.351Z,73.25
2018-10-12T19:55:16.234Z,73.14
2018-10-12T19:56:16.233Z,72.17
2018-10-12T19:57:16.235Z,73.55
2018-10-12T19:58:17.196Z,72.78
2018-10-12T19:59:16.342Z,71.97
2018-10-12T20:00:16.171Z,72.64
2018-10-12T20:01:16.236Z,73.28
2018-10-12T20:02:16.241Z,74.49
2018-10-12T20:03:16.238Z,74.69
2018-10-12T20:04:16.238Z,73.18
2018-10-12T20:05:16.239Z,72.88
2018-10-12T20:06:16.180Z,74.90
2018-10-12T20:07:16.122Z,76.40
2018-10-12T20:08:16.125Z,74.79
2018-10-12T20:09:16.120Z,74.90
2018-10-12T20:10:16.143Z,75.40
2018-10-12T20:11:16.122Z,75.94
2018-10-12T20:12:16.124Z,76.44
2018-10-12T20:13:16.061Z,73.32
2018-10-12T20:14:16.062Z,74.73
2018-10-12T20:31:40.054Z,74.56
2018-10-12T20:32:39.538Z,75.07
2018-10-12T20:33:39.464Z,75.47
2018-10-12T20:37:07.622Z,76.38
2018-10-12T20:38:07.281Z,78.53
2018-10-12T20:39:07.676Z,76.72
2018-10-12T20:40:07.314Z,76.51
2018-10-12T20:41:06.949Z,77.12
2018-10-12T20:42:06.905Z,76.62
2018-10-12T20:43:07.757Z,76.51
2018-10-12T20:44:07.272Z,76.92
2018-10-12T20:45:06.922Z,76.62
2018-10-12T20:46:06.909Z,78.53
2018-10-12T20:47:06.909Z,77.06
